Аэропорт: Рощино. Тюмень

ICAO: USTR

METAR:
2019/05/25 20:00
USTR 252000Z 27003MPS CAVOK 05/M04 Q1015 R21/CLRD65 NOSIG RMK QFE752/1003
METAR:
2019/05/25 18:00
TAF USTR 251655Z 2518/2618 26005MPS 9999 SCT020 
      TEMPO 2518/2602 24003MPS 3100 BR BKN011 
      BECMG 2602/2603 27006G11MPS